WetterOnline ( https://www.wetteronline.de )

Wetter aktuell Ahaus

Aktuelles Wetter: Ahaus (46m)

6-stündlich | Neueste Meldungen
Ortszeit Temperatur Wetter
Do, 09.02. 13:00 3.1° C leicht bewölkt
Do, 09.02. 7:00 -1.0° C wolkig
Do, 09.02. 1:00 0.9° C fast wolkenlos
Mi, 08.02. 19:00 0.3° C leicht bewölkt
Mi, 08.02. 13:00 5.7° C wolkenlos
Mi, 08.02. 7:00 -5.1° C fast wolkenlos
Mi, 08.02. 1:00 -4.0° C wolkenlos
Di, 07.02. 19:00 0.1° C wolkenlos
Ortszeit Temperatur Wetter
Do, 09.02. 14:00 3.6° C bedeckt
Do, 09.02. 13:50 3.6° C bedeckt
Do, 09.02. 13:40 3.9° C wolkig
Do, 09.02. 13:30 3.8° C leicht bewölkt
Do, 09.02. 13:20 3.8° C leicht bewölkt
Do, 09.02. 13:10 3.6° C leicht bewölkt
Do, 09.02. 13:00 3.1° C leicht bewölkt
Do, 09.02. 12:30 2.6° C wolkenlos
Do, 09.02. 12:00 2.1° C wolkenlos
Do, 09.02. 11:30 1.5° C leicht bewölkt
Do, 09.02. 11:00 1.0° C fast wolkenlos
Ortszeit Relative Feuchte Sichtweite
Do, 09.02. 13:00 59% 29 km
Do, 09.02. 7:00 68% 30 km
Do, 09.02. 1:00 54% 45 km
Mi, 08.02. 19:00 58% 55 km
Mi, 08.02. 13:00 33% >70 km
Mi, 08.02. 7:00 96% 7 km
Mi, 08.02. 1:00 96% 7 km
Di, 07.02. 19:00 80% 40 km
Ortszeit Relative Feuchte Sichtweite
Do, 09.02. 14:00 56% 40 km
Do, 09.02. 13:50 56% -
Do, 09.02. 13:40 55% -
Do, 09.02. 13:30 57% 40 km
Do, 09.02. 13:20 57% -
Do, 09.02. 13:10 59% -
Do, 09.02. 13:00 59% 29 km
Do, 09.02. 12:30 60% 28 km
Do, 09.02. 12:00 63% 30 km
Do, 09.02. 11:30 64% 35 km
Do, 09.02. 11:00 66% 30 km
Ortszeit Niederschlagsmenge Niederschlagsart
Do, 09.02. 13:00 0.0 l/m2 in 6 Std. -
Do, 09.02. 7:00 0.0 l/m2 in 12 Std. -
Do, 09.02. 1:00 0.0 l/m2 in 6 Std. -
Mi, 08.02. 19:00 0.0 l/m2 in 12 Std. -
Mi, 08.02. 13:00 0.0 l/m2 in 6 Std. -
Mi, 08.02. 7:00 0.0 l/m2 in 12 Std. -
Mi, 08.02. 1:00 0.0 l/m2 in 6 Std. -
Di, 07.02. 19:00 0.0 l/m2 in 12 Std. -
Ortszeit Niederschlagsmenge Niederschlagsart
Do, 09.02. 14:00 0.0 l/m2 in 1 Std. -
Do, 09.02. 13:50 keine Meldung -
Do, 09.02. 13:40 keine Meldung -
Do, 09.02. 13:30 0.0 l/m2 in 30 Min -
Do, 09.02. 13:20 keine Meldung -
Do, 09.02. 13:10 keine Meldung -
Do, 09.02. 13:00 0.0 l/m2 in 1 Std. -
Do, 09.02. 12:30 0.0 l/m2 in 30 Min -
Do, 09.02. 12:00 0.0 l/m2 in 1 Std. -
Do, 09.02. 11:30 0.0 l/m2 in 30 Min -
Do, 09.02. 11:00 0.0 l/m2 in 1 Std. -
Ortszeit Stärke Spitze Richtung
km/h Bft. km/h Grad Sektor
Do, 09.02. 13:00 15 3 28 210° SW
Do, 09.02. 7:00 14 3 25 190° S
Do, 09.02. 1:00 13 3 24 170° S
Mi, 08.02. 19:00 4 1 14 120° SO
Mi, 08.02. 13:00 7 2 15 170° S
Mi, 08.02. 7:00 7 2 7 110° O
Mi, 08.02. 1:00 4 1 7 120° SO
Di, 07.02. 19:00 4 1 14 90° O
Ortszeit Stärke Spitze Richtung
km/h Bft. km/h Grad Sektor
Do, 09.02. 14:00 11 2 25 220° SW
Do, 09.02. 13:50 11 2 - 220° SW
Do, 09.02. 13:40 11 2 - 240° SW
Do, 09.02. 13:30 14 3 25 220° SW
Do, 09.02. 13:20 14 3 - 220° SW
Do, 09.02. 13:10 14 3 - 210° SW
Do, 09.02. 13:00 15 3 24 210° SW
Do, 09.02. 12:30 14 3 25 200° S
Do, 09.02. 12:00 18 3 25 200° S
Do, 09.02. 11:30 17 3 26 200° S
Do, 09.02. 11:00 14 3 29 200° S
Ortszeit Untergrenze Bedeckung Gattung
total tief tief mittel hoch
Do, 09.02. 13:00 8100 m 5/8 0/8 - - -
Do, 09.02. 7:00 9000 m 8/8 0/8 - - -
Do, 09.02. 1:00 10500 m 1/8 0/8 - - -
Mi, 08.02. 19:00 12000 m 6/8 0/8 - - -
Mi, 08.02. 13:00 - 0/8 0/8 - - -
Mi, 08.02. 7:00 9000 m 2/8 0/8 - - -
Mi, 08.02. 1:00 - 0/8 0/8 - - -
Di, 07.02. 19:00 - 0/8 0/8 - - -
Ortszeit Bedeckungsgrad in Achtel und Wolkenuntergrenze
Do, 09.02. 14:00 6(5700m) 8(6300m)
Do, 09.02. 13:50 6(5700m) 8(6300m)
Do, 09.02. 13:40 6
Do, 09.02. 13:30 1(6900m)
Do, 09.02. 13:20 1(6900m) 2(8100m)
Do, 09.02. 13:10 2
Do, 09.02. 13:00 3(8100m) 5(8700m)
Do, 09.02. 12:30 keine Wolken
Do, 09.02. 12:00 keine Wolken
Do, 09.02. 11:30 4(8700m)
Do, 09.02. 11:00 2(8700m)
Ortszeit Luftdruck NN (hPa) Tendenz (hPa in 3 Std.)
Do, 09.02. 13:00 1032 - 0,3
Do, 09.02. 7:00 1031 - 0,7
Do, 09.02. 1:00 1033 - 1,2
Mi, 08.02. 19:00 1035 - 1,5
Mi, 08.02. 13:00 1038 - 0,2
Mi, 08.02. 7:00 1040 - 0,2
Mi, 08.02. 1:00 1040 - 0,4
Di, 07.02. 19:00 1040 + 0,2
Ortszeit Luftdruck NN (hPa) Tendenz (hPa in 3 Std.)
Do, 09.02. 14:00 1032 0,0
Do, 09.02. 13:50 1032 keine Meldung
Do, 09.02. 13:40 1032 keine Meldung
Do, 09.02. 13:30 1032 + 0,1
Do, 09.02. 13:20 1032 keine Meldung
Do, 09.02. 13:10 1032 keine Meldung
Do, 09.02. 13:00 1032 - 0,3
Do, 09.02. 12:30 1032 - 0,3
Do, 09.02. 12:00 1032 0,0
Do, 09.02. 11:30 1032 + 0,1
Do, 09.02. 11:00 1032 + 0,2
Ortszeit Schneehöhe (cm)
Do, 09.02. 13:00 0
Do, 09.02. 7:00 0
Do, 09.02. 1:00 0
Mi, 08.02. 19:00 0
Mi, 08.02. 13:00 0
Mi, 08.02. 7:00 0
Mi, 08.02. 1:00 0
Di, 07.02. 19:00 0
Ortszeit Schneehöhe (cm)
Do, 09.02. 14:00 0
Do, 09.02. 13:50 0
Do, 09.02. 13:40 0
Do, 09.02. 13:30 0
Do, 09.02. 13:20 0
Do, 09.02. 13:10 0
Do, 09.02. 13:00 0
Do, 09.02. 12:30 0
Do, 09.02. 12:00 0
Do, 09.02. 11:30 0
Do, 09.02. 11:00 0
Link zu dieser Seite / Seite empfehlen

Das Wetter in ...